createdAt,value
2023-11-28T00:04:44.220Z,97634.88
2023-11-28T00:09:46.439Z,97687.84
2023-11-28T00:14:48.260Z,97516.81
2023-11-28T00:19:49.907Z,97678.41
2023-11-28T00:24:51.570Z,97573.50
2023-11-28T00:29:53.761Z,97646.78
2023-11-28T00:34:55.389Z,97517.97
2023-11-28T00:39:57.076Z,97575.19
2023-11-28T00:44:58.744Z,97499.31
2023-11-28T00:50:00.386Z,97471.13
2023-11-28T00:55:02.151Z,97588.94
2023-11-28T01:00:07.931Z,97526.38
2023-11-28T01:05:10.320Z,97721.13
2023-11-28T01:10:12.084Z,97553.78
2023-11-28T01:15:13.708Z,97560.97
2023-11-28T01:20:15.388Z,97557.59
2023-11-28T01:25:16.945Z,97492.63
2023-11-28T01:30:19.228Z,97712.41
2023-11-28T01:35:21.452Z,97550.91
2023-11-28T01:40:23.335Z,97636.00
2023-11-28T01:45:25.701Z,97688.28
2023-11-28T01:50:27.440Z,97513.56
2023-11-28T01:55:29.116Z,97736.38
2023-11-28T02:00:31.058Z,97681.88
2023-11-28T02:05:33.458Z,97649.38
2023-11-28T02:10:37.182Z,97624.63
2023-11-28T02:15:43.512Z,97640.28
2023-11-28T02:20:45.491Z,97491.81
2023-11-28T02:25:48.204Z,97508.06
2023-11-28T02:30:50.643Z,97601.31
2023-11-28T02:35:55.589Z,97539.63
2023-11-28T02:40:57.202Z,97503.19
2023-11-28T02:45:59.103Z,97523.69
2023-11-28T02:51:00.715Z,97540.03
2023-11-28T02:56:02.404Z,97555.91
2023-11-28T03:01:04.131Z,97581.69
2023-11-28T03:06:06.116Z,97487.50
2023-11-28T03:11:09.709Z,97613.56
2023-11-28T03:16:11.713Z,97656.16
2023-11-28T03:21:13.328Z,97542.22
2023-11-28T03:26:14.960Z,97539.81
2023-11-28T03:31:16.833Z,97583.31
2023-11-28T03:36:18.965Z,97711.97
2023-11-28T03:41:20.853Z,97712.91
2023-11-28T03:46:22.531Z,97636.81
2023-11-28T03:51:25.163Z,97679.19
2023-11-28T03:56:26.813Z,97798.78
2023-11-28T04:01:28.590Z,97645.16
2023-11-28T04:06:31.372Z,97670.69
2023-11-28T04:11:33.115Z,97797.91
2023-11-28T04:16:34.730Z,97702.72
2023-11-28T04:21:36.388Z,97740.75
2023-11-28T04:26:41.226Z,97736.63
2023-11-28T04:31:43.044Z,97798.97
2023-11-28T04:36:44.817Z,97731.00
2023-11-28T04:41:46.474Z,97821.22
2023-11-28T04:46:48.201Z,97824.16
2023-11-28T04:51:49.951Z,97885.66
2023-11-28T04:56:51.556Z,97864.13
2023-11-28T05:01:53.331Z,97845.00
2023-11-28T05:06:55.022Z,97817.75
2023-11-28T05:11:56.795Z,97868.72
2023-11-28T05:16:58.471Z,97863.69
2023-11-28T05:22:00.135Z,97912.25
2023-11-28T05:27:02.582Z,97944.44
2023-11-28T05:32:06.203Z,98015.59
2023-11-28T05:37:07.837Z,97931.69
2023-11-28T05:42:09.514Z,97975.16
2023-11-28T05:47:11.616Z,97985.44
2023-11-28T05:52:13.419Z,98141.81
2023-11-28T05:57:15.062Z,98031.00
2023-11-28T06:02:16.857Z,97931.91
2023-11-28T06:07:18.575Z,98101.50
2023-11-28T06:12:20.138Z,98074.81
2023-11-28T06:17:21.897Z,98076.31
2023-11-28T06:22:23.789Z,98041.03
2023-11-28T06:27:25.466Z,98053.59
2023-11-28T06:32:27.257Z,98178.03
2023-11-28T06:37:28.849Z,98096.03
2023-11-28T06:42:30.491Z,98092.75
2023-11-28T06:47:32.099Z,98125.47
2023-11-28T06:52:38.048Z,98145.41
2023-11-28T06:57:39.932Z,98226.66
2023-11-28T07:02:41.681Z,98219.03
2023-11-28T07:07:43.620Z,98126.38
2023-11-28T07:12:45.448Z,98228.91
2023-11-28T07:17:48.223Z,98347.00
2023-11-28T07:22:49.908Z,98203.91
2023-11-28T07:27:51.568Z,98373.06
2023-11-28T07:32:53.601Z,98210.84
2023-11-28T07:37:55.285Z,98270.91
2023-11-28T07:42:57.015Z,98271.16
2023-11-28T07:48:01.666Z,98203.38
2023-11-28T07:53:04.457Z,98255.16
2023-11-28T07:58:08.081Z,98245.50
2023-11-28T08:03:10.382Z,98195.59
2023-11-28T08:08:12.343Z,98317.13
2023-11-28T08:13:16.376Z,98452.63
2023-11-28T08:18:18.048Z,98543.50
2023-11-28T08:23:19.728Z,98448.19
2023-11-28T08:28:21.393Z,98347.34
2023-11-28T08:33:23.033Z,98541.25
2023-11-28T08:38:26.455Z,98500.50
2023-11-28T08:43:28.324Z,98374.03
2023-11-28T08:48:30.287Z,98423.84
2023-11-28T08:53:31.974Z,98529.34
2023-11-28T08:58:33.704Z,98556.78
2023-11-28T09:03:35.636Z,98511.72
2023-11-28T09:08:39.446Z,98640.03
2023-11-28T09:13:42.683Z,98530.06
2023-11-28T09:18:44.315Z,98511.41
2023-11-28T09:23:46.143Z,98687.09
2023-11-28T09:28:47.742Z,98434.25
2023-11-28T09:33:49.427Z,98458.00
2023-11-28T09:38:51.267Z,98596.97
2023-11-28T09:43:55.948Z,98547.81
2023-11-28T09:49:01.197Z,98706.19
2023-11-28T09:54:03.638Z,98708.38
2023-11-28T09:59:09.639Z,98718.00
2023-11-28T10:04:11.716Z,98729.97
2023-11-28T10:09:15.491Z,98727.09
2023-11-28T10:14:17.146Z,98685.56
2023-11-28T10:19:19.041Z,98808.06
2023-11-28T10:24:22.384Z,98479.66
2023-11-28T10:29:25.453Z,98544.94
2023-11-28T10:34:29.152Z,98719.25
2023-11-28T10:39:32.378Z,98685.13
2023-11-28T10:44:34.491Z,98834.88
2023-11-28T10:49:36.211Z,98631.13
2023-11-28T10:54:41.207Z,98801.97
2023-11-28T10:59:44.624Z,98855.38
2023-11-28T11:06:10.436Z,98691.50
2023-11-28T11:11:12.542Z,98746.09
2023-11-28T11:16:40.447Z,98586.16
2023-11-28T11:21:49.222Z,98739.94
2023-11-28T11:26:51.255Z,98810.28
2023-11-28T11:32:01.624Z,98717.25
2023-11-28T11:37:18.700Z,98649.22
2023-11-28T11:42:22.984Z,98673.88
2023-11-28T11:47:28.348Z,98745.88
2023-11-28T11:52:30.716Z,98767.22
2023-11-28T11:57:33.034Z,98758.53
2023-11-28T12:02:44.734Z,98743.31
2023-11-28T12:07:48.384Z,98616.38
2023-11-28T12:12:50.490Z,98774.06
2023-11-28T12:17:53.289Z,98871.44
2023-11-28T12:22:55.058Z,98975.84
2023-11-28T12:27:56.678Z,98819.25
2023-11-28T12:33:01.418Z,98848.00
2023-11-28T12:38:03.435Z,98971.38
2023-11-28T12:43:05.465Z,98836.19
2023-11-28T12:48:07.182Z,98922.75
2023-11-28T12:53:24.111Z,98842.22
2023-11-28T12:58:26.454Z,98974.06
2023-11-28T13:03:28.211Z,98919.19
2023-11-28T13:08:31.168Z,98829.50
2023-11-28T13:13:32.829Z,98788.91
2023-11-28T13:18:34.678Z,98947.78
2023-11-28T13:23:36.821Z,99014.28
2023-11-28T13:28:39.274Z,98897.91
2023-11-28T13:33:46.998Z,98969.38
2023-11-28T13:38:48.670Z,98860.94
2023-11-28T13:43:50.536Z,98993.97
2023-11-28T13:48:53.344Z,98881.69
2023-11-28T13:53:56.300Z,98873.53
2023-11-28T13:59:00.226Z,99055.31
2023-11-28T14:04:02.961Z,98966.47
2023-11-28T14:09:07.331Z,99080.78
2023-11-28T14:14:09.138Z,98936.63
2023-11-28T14:19:10.858Z,99013.44
2023-11-28T14:24:12.604Z,99116.34
2023-11-28T14:29:14.315Z,99033.63
2023-11-28T14:34:16.792Z,99213.56
2023-11-28T14:39:18.440Z,99070.09
2023-11-28T14:44:20.157Z,99209.19
2023-11-28T14:49:21.857Z,99085.16
2023-11-28T14:54:23.458Z,98960.34
2023-11-28T14:59:25.129Z,99160.53
2023-11-28T15:04:27.964Z,99070.69
2023-11-28T15:09:29.743Z,98994.03
2023-11-28T15:14:32.357Z,99003.91
2023-11-28T15:19:34.100Z,99086.38
2023-11-28T15:24:36.838Z,99117.59
2023-11-28T15:29:38.621Z,99221.94
2023-11-28T15:34:40.244Z,99007.41
2023-11-28T15:39:41.921Z,99129.91
2023-11-28T15:44:43.490Z,99274.69
2023-11-28T15:49:48.380Z,99111.94
2023-11-28T15:54:51.957Z,99206.59
2023-11-28T15:59:56.872Z,99155.84
2023-11-28T16:05:02.061Z,99137.78
2023-11-28T16:10:05.520Z,99103.91
2023-11-28T16:15:07.807Z,99189.06
2023-11-28T16:20:10.840Z,99207.34
2023-11-28T16:25:12.719Z,99207.47
2023-11-28T16:30:14.706Z,99445.72
2023-11-28T16:35:16.493Z,99222.38
2023-11-28T16:40:18.147Z,99084.81
2023-11-28T16:45:19.727Z,99231.41
2023-11-28T16:50:21.385Z,99397.88
2023-11-28T16:55:22.995Z,99229.22
2023-11-28T17:00:25.699Z,99124.91
2023-11-28T17:05:29.740Z,99403.19
2023-11-28T17:10:32.977Z,99346.53
2023-11-28T17:15:34.562Z,99271.03
2023-11-28T17:20:36.245Z,99251.91
2023-11-28T17:25:37.998Z,99372.03
2023-11-28T17:30:39.681Z,99451.84
2023-11-28T17:35:41.497Z,99479.09
2023-11-28T17:40:43.082Z,99424.53
2023-11-28T17:45:44.745Z,99310.81
2023-11-28T17:50:46.403Z,99369.16
2023-11-28T17:55:48.144Z,99198.84
2023-11-28T18:00:50.736Z,99486.75
2023-11-28T18:05:52.387Z,99461.63
2023-11-28T18:10:54.174Z,99340.59
2023-11-28T18:15:55.852Z,99368.84
2023-11-28T18:20:57.460Z,99449.09
2023-11-28T18:26:04.174Z,99289.09
2023-11-28T18:31:05.882Z,99341.78
2023-11-28T18:36:09.189Z,99396.75
2023-11-28T18:41:10.859Z,99505.34
2023-11-28T18:46:14.169Z,99443.75
2023-11-28T18:51:16.914Z,99455.19
2023-11-28T18:56:20.217Z,99172.25
2023-11-28T19:01:23.908Z,99450.47
2023-11-28T19:06:31.873Z,99161.25
2023-11-28T19:11:33.545Z,99262.03
2023-11-28T19:16:37.611Z,99326.78
2023-11-28T19:21:45.012Z,99404.16
2023-11-28T19:26:48.807Z,99498.25
2023-11-28T19:31:50.431Z,99376.91
2023-11-28T19:36:52.422Z,99376.13
2023-11-28T19:41:54.114Z,99228.59
2023-11-28T19:46:55.784Z,99318.66
2023-11-28T19:51:58.821Z,99379.03
2023-11-28T19:57:00.470Z,99423.47
2023-11-28T20:02:02.290Z,99572.59
2023-11-28T20:07:04.242Z,99359.28
2023-11-28T20:12:06.244Z,99324.94
2023-11-28T20:17:12.192Z,99370.47
2023-11-28T20:22:15.955Z,99422.31
2023-11-28T20:27:18.567Z,99377.28
2023-11-28T20:32:20.219Z,99322.97
2023-11-28T20:37:24.145Z,99466.34
2023-11-28T20:42:26.975Z,99391.06
2023-11-28T20:47:28.659Z,99409.41
2023-11-28T20:52:30.292Z,99468.22
2023-11-28T20:57:33.766Z,99376.97
2023-11-28T21:02:36.018Z,99293.13
2023-11-28T21:07:37.857Z,99463.59
2023-11-28T21:12:39.735Z,99390.72
2023-11-28T21:17:41.449Z,99373.63
2023-11-28T21:22:43.301Z,99341.66
2023-11-28T21:27:44.879Z,99332.72
2023-11-28T21:32:46.730Z,99529.56
2023-11-28T21:37:53.887Z,99415.19
2023-11-28T21:42:55.573Z,99462.47
2023-11-28T21:47:57.318Z,99267.22
2023-11-28T21:53:03.165Z,99255.75
2023-11-28T21:58:04.774Z,99296.44
2023-11-28T22:03:10.220Z,99419.72
2023-11-28T22:08:12.106Z,99217.97
2023-11-28T22:13:13.886Z,99506.63
2023-11-28T22:18:15.487Z,99215.09
2023-11-28T22:23:17.251Z,99343.09
2023-11-28T22:28:18.912Z,99334.22
2023-11-28T22:33:20.588Z,99397.06
2023-11-28T22:38:22.359Z,99288.19
2023-11-28T22:43:24.391Z,99249.88
2023-11-28T22:48:26.808Z,99402.13
2023-11-28T22:53:28.745Z,99285.38
2023-11-28T22:58:30.934Z,99440.91
2023-11-28T23:03:32.614Z,99324.84
2023-11-28T23:08:37.375Z,99535.25
2023-11-28T23:13:39.150Z,99313.13
2023-11-28T23:18:40.951Z,99331.09
2023-11-28T23:23:42.585Z,99364.47
2023-11-28T23:28:44.402Z,99359.31
2023-11-28T23:33:47.109Z,99347.06
2023-11-28T23:38:48.734Z,99391.91
2023-11-28T23:43:50.406Z,99306.06
2023-11-28T23:48:57.236Z,99310.56
2023-11-28T23:53:59.376Z,99149.25
2023-11-28T23:59:00.985Z,99258.97
